METAR/TAF

Belfast City Airport
BELFAST HARBOUR
Metar
EGAC 241050Z AUTO 18010KT 9999 NCD 20/14 Q1016

10:50 UTC

Wind: 180° 10kt

Visibility: 9999 m

Sky:

Temp: 20 deg C / 68 deg F

Dewpoint: 14 deg C / 57.2 deg F

Pressure: 1016 hPa

TAF
TAF AMD EGAC 240835Z 2409/2418 17009KT 9999 FEW010 SCT040 TEMPO 2409/2411 7000
Belfast International Airport
BELFAST/ALDERGRO
Metar
EGAA 241050Z 14009KT 110V180 CAVOK 21/15 Q1016

10:50 UTC

Wind: 140° 9kt

Visibility:

Sky:

Temp: 21 deg C / 69.8 deg F

Dewpoint: 15 deg C / 59 deg F

Pressure: 1016 hPa

TAF
TAF EGAA 240456Z 2406/2506 15008KT CAVOK PROB30 2422/2506 8000
Print Friendly, PDF & Email